sensor_id;sensor_type;location;lat;lon;timestamp;temperature;humidity
69393;SHT31;56582;44.624;20.378;2024-01-07T00:01:26;10.72;75.37
69393;SHT31;56582;44.624;20.378;2024-01-07T00:03:52;10.73;75.35
69393;SHT31;56582;44.624;20.378;2024-01-07T00:06:17;10.72;75.26
69393;SHT31;56582;44.624;20.378;2024-01-07T00:08:43;10.68;75.39
69393;SHT31;56582;44.624;20.378;2024-01-07T00:11:08;10.69;74.90
69393;SHT31;56582;44.624;20.378;2024-01-07T00:13:34;10.72;74.41
69393;SHT31;56582;44.624;20.378;2024-01-07T00:15:59;10.73;74.35
69393;SHT31;56582;44.624;20.378;2024-01-07T00:18:25;10.73;74.11
69393;SHT31;56582;44.624;20.378;2024-01-07T00:20:52;10.69;74.20
69393;SHT31;56582;44.624;20.378;2024-01-07T00:23:18;10.68;74.07
69393;SHT31;56582;44.624;20.378;2024-01-07T00:25:43;10.72;73.79
69393;SHT31;56582;44.624;20.378;2024-01-07T00:28:09;10.66;73.65
69393;SHT31;56582;44.624;20.378;2024-01-07T00:30:35;10.68;73.77
69393;SHT31;56582;44.624;20.378;2024-01-07T00:33:00;10.63;73.63
69393;SHT31;56582;44.624;20.378;2024-01-07T00:35:26;10.66;73.54
69393;SHT31;56582;44.624;20.378;2024-01-07T00:37:51;10.65;73.66
69393;SHT31;56582;44.624;20.378;2024-01-07T00:40:17;10.65;73.52
69393;SHT31;56582;44.624;20.378;2024-01-07T00:42:42;10.55;73.69
69393;SHT31;56582;44.624;20.378;2024-01-07T00:45:08;10.48;73.73
69393;SHT31;56582;44.624;20.378;2024-01-07T00:47:34;10.44;73.87
69393;SHT31;56582;44.624;20.378;2024-01-07T00:49:59;10.56;76.18
69393;SHT31;56582;44.624;20.378;2024-01-07T00:52:25;10.60;73.67
69393;SHT31;56582;44.624;20.378;2024-01-07T00:54:50;10.65;73.15
69393;SHT31;56582;44.624;20.378;2024-01-07T00:57:16;10.52;73.48
69393;SHT31;56582;44.624;20.378;2024-01-07T00:59:42;10.50;73.13
69393;SHT31;56582;44.624;20.378;2024-01-07T01:02:07;10.46;73.92
69393;SHT31;56582;44.624;20.378;2024-01-07T01:04:33;10.31;74.05
69393;SHT31;56582;44.624;20.378;2024-01-07T01:06:58;10.39;73.70
69393;SHT31;56582;44.624;20.378;2024-01-07T01:09:24;10.39;74.99
69393;SHT31;56582;44.624;20.378;2024-01-07T01:11:49;10.29;74.37
69393;SHT31;56582;44.624;20.378;2024-01-07T01:14:15;10.29;73.47
69393;SHT31;56582;44.624;20.378;2024-01-07T01:16:41;10.24;74.30
69393;SHT31;56582;44.624;20.378;2024-01-07T01:19:06;10.18;74.42
69393;SHT31;56582;44.624;20.378;2024-01-07T01:21:32;10.12;74.18
69393;SHT31;56582;44.624;20.378;2024-01-07T01:23:57;10.01;75.15
69393;SHT31;56582;44.624;20.378;2024-01-07T01:26:23;10.01;75.25
69393;SHT31;56582;44.624;20.378;2024-01-07T01:28:48;10.07;74.74
69393;SHT31;56582;44.624;20.378;2024-01-07T01:31:14;10.05;74.51
69393;SHT31;56582;44.624;20.378;2024-01-07T01:33:40;10.04;74.46
69393;SHT31;56582;44.624;20.378;2024-01-07T01:36:06;10.05;74.80
69393;SHT31;56582;44.624;20.378;2024-01-07T01:38:32;9.97;74.64
69393;SHT31;56582;44.624;20.378;2024-01-07T01:40:57;9.87;74.79
69393;SHT31;56582;44.624;20.378;2024-01-07T01:43:27;9.88;74.62
69393;SHT31;56582;44.624;20.378;2024-01-07T01:45:54;9.86;74.50
69393;SHT31;56582;44.624;20.378;2024-01-07T01:48:21;9.81;74.62
69393;SHT31;56582;44.624;20.378;2024-01-07T01:50:47;9.90;74.18
69393;SHT31;56582;44.624;20.378;2024-01-07T01:53:14;9.94;74.66
69393;SHT31;56582;44.624;20.378;2024-01-07T01:55:41;9.94;75.30
69393;SHT31;56582;44.624;20.378;2024-01-07T01:58:09;9.90;74.37
69393;SHT31;56582;44.624;20.378;2024-01-07T02:00:35;9.90;74.42
69393;SHT31;56582;44.624;20.378;2024-01-07T02:03:00;9.91;74.35
69393;SHT31;56582;44.624;20.378;2024-01-07T02:05:27;9.90;75.34
69393;SHT31;56582;44.624;20.378;2024-01-07T02:07:53;9.77;74.79
69393;SHT31;56582;44.624;20.378;2024-01-07T02:10:21;9.79;74.88
69393;SHT31;56582;44.624;20.378;2024-01-07T02:12:47;9.73;75.20
69393;SHT31;56582;44.624;20.378;2024-01-07T02:15:13;9.66;75.05
69393;SHT31;56582;44.624;20.378;2024-01-07T02:17:39;9.73;75.16
69393;SHT31;56582;44.624;20.378;2024-01-07T02:20:05;9.71;74.91
69393;SHT31;56582;44.624;20.378;2024-01-07T02:22:30;9.73;75.37
69393;SHT31;56582;44.624;20.378;2024-01-07T02:24:56;9.80;74.96
69393;SHT31;56582;44.624;20.378;2024-01-07T02:27:21;9.84;74.44
69393;SHT31;56582;44.624;20.378;2024-01-07T02:29:47;9.80;74.52
69393;SHT31;56582;44.624;20.378;2024-01-07T02:32:12;9.84;74.61
69393;SHT31;56582;44.624;20.378;2024-01-07T02:34:38;9.84;74.49
69393;SHT31;56582;44.624;20.378;2024-01-07T02:37:03;9.88;74.43
69393;SHT31;56582;44.624;20.378;2024-01-07T02:39:29;9.80;74.49
69393;SHT31;56582;44.624;20.378;2024-01-07T02:41:54;9.87;74.33
69393;SHT31;56582;44.624;20.378;2024-01-07T02:44:20;9.84;74.26
69393;SHT31;56582;44.624;20.378;2024-01-07T02:46:45;9.79;74.24
69393;SHT31;56582;44.624;20.378;2024-01-07T02:49:12;9.74;74.38
69393;SHT31;56582;44.624;20.378;2024-01-07T02:51:38;9.86;74.27
69393;SHT31;56582;44.624;20.378;2024-01-07T02:54:03;9.83;74.32
69393;SHT31;56582;44.624;20.378;2024-01-07T02:56:29;9.86;74.08
69393;SHT31;56582;44.624;20.378;2024-01-07T02:58:54;9.87;74.52
69393;SHT31;56582;44.624;20.378;2024-01-07T03:01:24;9.91;74.93
69393;SHT31;56582;44.624;20.378;2024-01-07T03:03:50;9.88;74.38
69393;SHT31;56582;44.624;20.378;2024-01-07T03:06:15;9.74;75.09
69393;SHT31;56582;44.624;20.378;2024-01-07T03:08:42;9.69;75.19
69393;SHT31;56582;44.624;20.378;2024-01-07T03:11:08;9.74;75.43
69393;SHT31;56582;44.624;20.378;2024-01-07T03:13:33;9.59;75.48
69393;SHT31;56582;44.624;20.378;2024-01-07T03:15:59;9.53;75.16
69393;SHT31;56582;44.624;20.378;2024-01-07T03:18:25;9.44;75.54
69393;SHT31;56582;44.624;20.378;2024-01-07T03:20:51;9.43;75.41
69393;SHT31;56582;44.624;20.378;2024-01-07T03:23:17;9.35;75.77
69393;SHT31;56582;44.624;20.378;2024-01-07T03:25:44;9.26;76.41
69393;SHT31;56582;44.624;20.378;2024-01-07T03:28:09;9.29;75.98
69393;SHT31;56582;44.624;20.378;2024-01-07T03:30:35;9.38;75.58
69393;SHT31;56582;44.624;20.378;2024-01-07T03:33:00;9.40;75.73
69393;SHT31;56582;44.624;20.378;2024-01-07T03:35:27;9.26;75.83
69393;SHT31;56582;44.624;20.378;2024-01-07T03:37:53;9.23;76.11
69393;SHT31;56582;44.624;20.378;2024-01-07T03:40:18;9.28;75.98
69393;SHT31;56582;44.624;20.378;2024-01-07T03:42:47;9.26;75.56
69393;SHT31;56582;44.624;20.378;2024-01-07T03:45:12;9.28;75.71
69393;SHT31;56582;44.624;20.378;2024-01-07T03:47:38;9.29;75.67
69393;SHT31;56582;44.624;20.378;2024-01-07T03:50:03;9.28;75.65
69393;SHT31;56582;44.624;20.378;2024-01-07T03:52:29;9.29;75.51
69393;SHT31;56582;44.624;20.378;2024-01-07T03:54:55;9.29;75.04
69393;SHT31;56582;44.624;20.378;2024-01-07T03:57:20;9.25;75.20
69393;SHT31;56582;44.624;20.378;2024-01-07T03:59:46;9.21;75.19
69393;SHT31;56582;44.624;20.378;2024-01-07T04:02:11;9.23;75.27
69393;SHT31;56582;44.624;20.378;2024-01-07T04:04:37;9.21;75.36
69393;SHT31;56582;44.624;20.378;2024-01-07T04:07:02;9.29;74.70
69393;SHT31;56582;44.624;20.378;2024-01-07T04:09:28;9.39;74.56
69393;SHT31;56582;44.624;20.378;2024-01-07T04:11:53;9.56;74.58
69393;SHT31;56582;44.624;20.378;2024-01-07T04:14:19;9.47;73.83
69393;SHT31;56582;44.624;20.378;2024-01-07T04:16:44;9.44;73.54
69393;SHT31;56582;44.624;20.378;2024-01-07T04:19:10;9.40;73.33
69393;SHT31;56582;44.624;20.378;2024-01-07T04:21:35;9.32;73.94
69393;SHT31;56582;44.624;20.378;2024-01-07T04:24:01;9.40;73.49
69393;SHT31;56582;44.624;20.378;2024-01-07T04:26:27;9.47;73.28
69393;SHT31;56582;44.624;20.378;2024-01-07T04:28:52;9.52;73.51
69393;SHT31;56582;44.624;20.378;2024-01-07T04:31:18;9.56;72.72
69393;SHT31;56582;44.624;20.378;2024-01-07T04:33:43;9.52;72.72
69393;SHT31;56582;44.624;20.378;2024-01-07T04:36:09;9.36;72.92
69393;SHT31;56582;44.624;20.378;2024-01-07T04:38:35;9.31;73.12
69393;SHT31;56582;44.624;20.378;2024-01-07T04:41:00;9.38;73.17
69393;SHT31;56582;44.624;20.378;2024-01-07T04:43:26;9.40;72.83
69393;SHT31;56582;44.624;20.378;2024-01-07T04:45:51;9.35;72.89
69393;SHT31;56582;44.624;20.378;2024-01-07T04:48:17;9.46;72.64
69393;SHT31;56582;44.624;20.378;2024-01-07T04:50:42;9.39;72.58
69393;SHT31;56582;44.624;20.378;2024-01-07T04:53:08;9.59;72.35
69393;SHT31;56582;44.624;20.378;2024-01-07T04:55:34;9.67;72.11
69393;SHT31;56582;44.624;20.378;2024-01-07T04:58:00;9.71;73.33
69393;SHT31;56582;44.624;20.378;2024-01-07T05:00:26;9.53;71.94
69393;SHT31;56582;44.624;20.378;2024-01-07T05:02:52;9.70;73.80
69393;SHT31;56582;44.624;20.378;2024-01-07T05:05:17;9.76;71.13
69393;SHT31;56582;44.624;20.378;2024-01-07T05:07:43;9.71;71.15
69393;SHT31;56582;44.624;20.378;2024-01-07T05:10:08;9.80;71.89
69393;SHT31;56582;44.624;20.378;2024-01-07T05:12:34;9.74;70.97
69393;SHT31;56582;44.624;20.378;2024-01-07T05:14:59;9.84;70.71
69393;SHT31;56582;44.624;20.378;2024-01-07T05:17:25;10.07;75.52
69393;SHT31;56582;44.624;20.378;2024-01-07T05:19:50;10.18;72.62
69393;SHT31;56582;44.624;20.378;2024-01-07T05:22:16;10.32;69.43
69393;SHT31;56582;44.624;20.378;2024-01-07T05:24:41;10.35;70.89
69393;SHT31;56582;44.624;20.378;2024-01-07T05:27:07;10.32;70.97
69393;SHT31;56582;44.624;20.378;2024-01-07T05:29:33;10.37;71.07
69393;SHT31;56582;44.624;20.378;2024-01-07T05:31:59;10.50;72.19
69393;SHT31;56582;44.624;20.378;2024-01-07T05:34:28;10.19;69.57
69393;SHT31;56582;44.624;20.378;2024-01-07T05:36:54;10.31;69.54
69393;SHT31;56582;44.624;20.378;2024-01-07T05:39:19;10.24;70.93
69393;SHT31;56582;44.624;20.378;2024-01-07T05:41:46;10.31;69.61
69393;SHT31;56582;44.624;20.378;2024-01-07T05:44:12;10.52;68.12
69393;SHT31;56582;44.624;20.378;2024-01-07T05:46:41;10.34;69.39
69393;SHT31;56582;44.624;20.378;2024-01-07T05:49:06;10.21;69.46
69393;SHT31;56582;44.624;20.378;2024-01-07T05:51:32;10.15;69.43
69393;SHT31;56582;44.624;20.378;2024-01-07T05:53:57;10.02;69.75
69393;SHT31;56582;44.624;20.378;2024-01-07T05:56:23;9.95;69.16
69393;SHT31;56582;44.624;20.378;2024-01-07T05:58:49;10.07;70.22
69393;SHT31;56582;44.624;20.378;2024-01-07T06:01:21;10.01;69.46
69393;SHT31;56582;44.624;20.378;2024-01-07T06:03:47;9.97;70.06
69393;SHT31;56582;44.624;20.378;2024-01-07T06:06:14;9.94;72.14
69393;SHT31;56582;44.624;20.378;2024-01-07T06:08:41;9.81;71.41
69393;SHT31;56582;44.624;20.378;2024-01-07T06:11:06;9.88;72.85
69393;SHT31;56582;44.624;20.378;2024-01-07T06:13:32;9.81;71.61
69393;SHT31;56582;44.624;20.378;2024-01-07T06:15:57;9.79;72.35
69393;SHT31;56582;44.624;20.378;2024-01-07T06:18:23;10.00;73.89
69393;SHT31;56582;44.624;20.378;2024-01-07T06:20:48;9.79;71.56
69393;SHT31;56582;44.624;20.378;2024-01-07T06:23:14;9.84;71.89
69393;SHT31;56582;44.624;20.378;2024-01-07T06:25:40;9.84;70.94
69393;SHT31;56582;44.624;20.378;2024-01-07T06:28:05;9.90;72.49
69393;SHT31;56582;44.624;20.378;2024-01-07T06:30:31;10.02;70.91
69393;SHT31;56582;44.624;20.378;2024-01-07T06:32:56;9.91;70.67
69393;SHT31;56582;44.624;20.378;2024-01-07T06:35:22;10.02;71.61
69393;SHT31;56582;44.624;20.378;2024-01-07T06:37:48;10.00;70.43
69393;SHT31;56582;44.624;20.378;2024-01-07T06:40:13;10.32;72.54
69393;SHT31;56582;44.624;20.378;2024-01-07T06:42:39;10.24;70.08
69393;SHT31;56582;44.624;20.378;2024-01-07T06:45:05;10.08;70.90
69393;SHT31;56582;44.624;20.378;2024-01-07T06:47:30;10.32;74.36
69393;SHT31;56582;44.624;20.378;2024-01-07T06:49:56;10.62;73.49
69393;SHT31;56582;44.624;20.378;2024-01-07T06:52:21;10.63;74.30
69393;SHT31;56582;44.624;20.378;2024-01-07T06:54:50;10.73;70.49
69393;SHT31;56582;44.624;20.378;2024-01-07T06:57:16;10.79;71.24
69393;SHT31;56582;44.624;20.378;2024-01-07T06:59:42;11.04;73.55
69393;SHT31;56582;44.624;20.378;2024-01-07T07:02:07;11.08;72.78
69393;SHT31;56582;44.624;20.378;2024-01-07T07:04:33;11.52;74.73
69393;SHT31;56582;44.624;20.378;2024-01-07T07:06:59;12.09;77.14
69393;SHT31;56582;44.624;20.378;2024-01-07T07:09:25;12.61;73.44
69393;SHT31;56582;44.624;20.378;2024-01-07T07:11:51;12.74;71.68
69393;SHT31;56582;44.624;20.378;2024-01-07T07:14:16;12.72;69.25
69393;SHT31;56582;44.624;20.378;2024-01-07T07:16:42;13.26;71.40
69393;SHT31;56582;44.624;20.378;2024-01-07T07:19:07;13.69;70.89
69393;SHT31;56582;44.624;20.378;2024-01-07T07:21:33;13.67;70.25
69393;SHT31;56582;44.624;20.378;2024-01-07T07:23:58;14.17;71.08
69393;SHT31;56582;44.624;20.378;2024-01-07T07:26:24;14.94;68.57
69393;SHT31;56582;44.624;20.378;2024-01-07T07:28:49;15.38;67.38
69393;SHT31;56582;44.624;20.378;2024-01-07T07:31:15;14.96;59.74
69393;SHT31;56582;44.624;20.378;2024-01-07T07:33:40;14.02;60.44
69393;SHT31;56582;44.624;20.378;2024-01-07T07:36:06;13.56;61.91
69393;SHT31;56582;44.624;20.378;2024-01-07T07:38:32;13.13;62.82
69393;SHT31;56582;44.624;20.378;2024-01-07T07:40:59;12.91;62.83
69393;SHT31;56582;44.624;20.378;2024-01-07T07:43:25;12.22;63.45
69393;SHT31;56582;44.624;20.378;2024-01-07T07:45:50;11.99;63.55
69393;SHT31;56582;44.624;20.378;2024-01-07T07:48:16;11.92;64.02
69393;SHT31;56582;44.624;20.378;2024-01-07T07:50:42;11.92;64.07
69393;SHT31;56582;44.624;20.378;2024-01-07T07:53:07;11.79;65.35
69393;SHT31;56582;44.624;20.378;2024-01-07T07:55:33;11.31;66.39
69393;SHT31;56582;44.624;20.378;2024-01-07T07:57:58;10.84;69.19
69393;SHT31;56582;44.624;20.378;2024-01-07T08:00:24;10.65;69.70
69393;SHT31;56582;44.624;20.378;2024-01-07T08:02:50;10.87;69.66
69393;SHT31;56582;44.624;20.378;2024-01-07T08:05:15;10.00;70.96
69393;SHT31;56582;44.624;20.378;2024-01-07T08:07:41;9.79;71.60
69393;SHT31;56582;44.624;20.378;2024-01-07T08:10:07;9.87;71.26
69393;SHT31;56582;44.624;20.378;2024-01-07T08:12:33;10.07;72.21
69393;SHT31;56582;44.624;20.378;2024-01-07T08:14:59;10.14;71.14
69393;SHT31;56582;44.624;20.378;2024-01-07T08:17:24;10.29;70.06
69393;SHT31;56582;44.624;20.378;2024-01-07T08:19:50;10.05;70.65
69393;SHT31;56582;44.624;20.378;2024-01-07T08:22:16;10.01;71.11
69393;SHT31;56582;44.624;20.378;2024-01-07T08:24:41;10.29;70.33
69393;SHT31;56582;44.624;20.378;2024-01-07T08:27:08;10.21;70.68
69393;SHT31;56582;44.624;20.378;2024-01-07T08:29:33;10.32;70.25
69393;SHT31;56582;44.624;20.378;2024-01-07T08:31:59;10.37;69.60
69393;SHT31;56582;44.624;20.378;2024-01-07T08:34:24;10.44;70.24
69393;SHT31;56582;44.624;20.378;2024-01-07T08:36:50;10.46;70.35
69393;SHT31;56582;44.624;20.378;2024-01-07T08:39:15;10.46;69.88
69393;SHT31;56582;44.624;20.378;2024-01-07T08:41:41;10.46;70.42
69393;SHT31;56582;44.624;20.378;2024-01-07T08:44:07;10.27;69.55
69393;SHT31;56582;44.624;20.378;2024-01-07T08:46:34;10.25;70.28
69393;SHT31;56582;44.624;20.378;2024-01-07T08:49:03;10.25;70.77
69393;SHT31;56582;44.624;20.378;2024-01-07T08:51:28;10.55;69.82
69393;SHT31;56582;44.624;20.378;2024-01-07T08:53:57;10.21;71.44
69393;SHT31;56582;44.624;20.378;2024-01-07T08:56:23;10.25;71.78
69393;SHT31;56582;44.624;20.378;2024-01-07T08:58:49;10.01;71.78
69393;SHT31;56582;44.624;20.378;2024-01-07T09:01:14;10.10;71.69
69393;SHT31;56582;44.624;20.378;2024-01-07T09:03:40;10.37;71.74
69393;SHT31;56582;44.624;20.378;2024-01-07T09:06:07;10.29;71.45
69393;SHT31;56582;44.624;20.378;2024-01-07T09:08:33;10.32;71.10
69393;SHT31;56582;44.624;20.378;2024-01-07T09:10:59;10.22;71.77
69393;SHT31;56582;44.624;20.378;2024-01-07T09:13:25;10.22;72.66
69393;SHT31;56582;44.624;20.378;2024-01-07T09:15:51;10.22;72.97
69393;SHT31;56582;44.624;20.378;2024-01-07T09:18:16;10.24;73.33
69393;SHT31;56582;44.624;20.378;2024-01-07T09:20:42;10.24;74.29
69393;SHT31;56582;44.624;20.378;2024-01-07T09:23:07;10.35;74.21
69393;SHT31;56582;44.624;20.378;2024-01-07T09:25:33;10.35;73.38
69393;SHT31;56582;44.624;20.378;2024-01-07T09:27:58;10.34;75.53
69393;SHT31;56582;44.624;20.378;2024-01-07T09:30:24;10.32;77.11
69393;SHT31;56582;44.624;20.378;2024-01-07T09:32:49;10.32;76.68
69393;SHT31;56582;44.624;20.378;2024-01-07T09:35:15;10.28;76.23
69393;SHT31;56582;44.624;20.378;2024-01-07T09:37:41;10.48;76.76
69393;SHT31;56582;44.624;20.378;2024-01-07T09:40:07;10.34;77.32
69393;SHT31;56582;44.624;20.378;2024-01-07T09:42:34;10.37;78.81
69393;SHT31;56582;44.624;20.378;2024-01-07T09:45:03;10.45;78.82
69393;SHT31;56582;44.624;20.378;2024-01-07T09:47:30;10.39;79.14
69393;SHT31;56582;44.624;20.378;2024-01-07T09:49:55;10.68;81.86
69393;SHT31;56582;44.624;20.378;2024-01-07T09:52:22;11.39;86.98
69393;SHT31;56582;44.624;20.378;2024-01-07T09:54:51;11.46;79.67
69393;SHT31;56582;44.624;20.378;2024-01-07T09:57:17;11.48;78.18
69393;SHT31;56582;44.624;20.378;2024-01-07T09:59:43;11.30;79.10
69393;SHT31;56582;44.624;20.378;2024-01-07T10:02:08;11.24;79.43
69393;SHT31;56582;44.624;20.378;2024-01-07T10:04:35;11.23;78.36
69393;SHT31;56582;44.624;20.378;2024-01-07T10:07:00;11.17;78.66
69393;SHT31;56582;44.624;20.378;2024-01-07T10:09:32;11.13;80.05
69393;SHT31;56582;44.624;20.378;2024-01-07T10:11:58;10.97;80.20
69393;SHT31;56582;44.624;20.378;2024-01-07T10:14:23;10.79;79.93
69393;SHT31;56582;44.624;20.378;2024-01-07T10:16:51;10.86;82.15
69393;SHT31;56582;44.624;20.378;2024-01-07T10:19:21;11.03;84.59
69393;SHT31;56582;44.624;20.378;2024-01-07T10:21:58;10.77;82.34
69393;SHT31;56582;44.624;20.378;2024-01-07T10:24:24;10.77;80.95
69393;SHT31;56582;44.624;20.378;2024-01-07T10:26:50;10.75;81.42
69393;SHT31;56582;44.624;20.378;2024-01-07T10:29:15;10.90;82.45
69393;SHT31;56582;44.624;20.378;2024-01-07T10:31:41;10.97;81.96
69393;SHT31;56582;44.624;20.378;2024-01-07T10:34:09;11.06;80.54
69393;SHT31;56582;44.624;20.378;2024-01-07T10:36:35;10.92;80.28
69393;SHT31;56582;44.624;20.378;2024-01-07T10:39:02;11.04;83.17
69393;SHT31;56582;44.624;20.378;2024-01-07T10:41:29;11.08;80.58
69393;SHT31;56582;44.624;20.378;2024-01-07T10:43:57;11.04;79.95
69393;SHT31;56582;44.624;20.378;2024-01-07T10:46:25;11.10;79.77
69393;SHT31;56582;44.624;20.378;2024-01-07T10:48:59;11.17;78.31
69393;SHT31;56582;44.624;20.378;2024-01-07T10:51:27;11.28;76.74
69393;SHT31;56582;44.624;20.378;2024-01-07T10:53:55;11.11;77.36
69393;SHT31;56582;44.624;20.378;2024-01-07T10:56:23;11.03;77.27
69393;SHT31;56582;44.624;20.378;2024-01-07T10:58:52;11.16;78.11
69393;SHT31;56582;44.624;20.378;2024-01-07T11:01:18;11.13;77.46
69393;SHT31;56582;44.624;20.378;2024-01-07T11:03:53;11.00;78.50
69393;SHT31;56582;44.624;20.378;2024-01-07T11:06:33;11.13;78.96
69393;SHT31;56582;44.624;20.378;2024-01-07T11:09:07;11.18;76.46
69393;SHT31;56582;44.624;20.378;2024-01-07T11:11:39;11.07;78.19
69393;SHT31;56582;44.624;20.378;2024-01-07T11:17:11;11.04;76.92
69393;SHT31;56582;44.624;20.378;2024-01-07T11:19:51;11.10;77.45
69393;SHT31;56582;44.624;20.378;2024-01-07T11:22:24;11.16;78.12
69393;SHT31;56582;44.624;20.378;2024-01-07T11:24:54;11.20;77.78
69393;SHT31;56582;44.624;20.378;2024-01-07T11:27:22;11.34;78.29
69393;SHT31;56582;44.624;20.378;2024-01-07T11:30:01;11.55;79.73
69393;SHT31;56582;44.624;20.378;2024-01-07T11:32:30;11.61;76.57
69393;SHT31;56582;44.624;20.378;2024-01-07T11:34:56;11.51;76.38
69393;SHT31;56582;44.624;20.378;2024-01-07T11:37:25;11.28;77.52
69393;SHT31;56582;44.624;20.378;2024-01-07T11:39:55;11.23;76.22
69393;SHT31;56582;44.624;20.378;2024-01-07T11:42:24;11.08;76.61
69393;SHT31;56582;44.624;20.378;2024-01-07T11:44:52;11.31;79.10
69393;SHT31;56582;44.624;20.378;2024-01-07T11:47:18;11.66;78.66
69393;SHT31;56582;44.624;20.378;2024-01-07T11:49:45;11.90;78.43
69393;SHT31;56582;44.624;20.378;2024-01-07T11:52:11;11.93;76.40
69393;SHT31;56582;44.624;20.378;2024-01-07T11:54:39;11.96;79.13
69393;SHT31;56582;44.624;20.378;2024-01-07T11:57:08;12.37;76.21
69393;SHT31;56582;44.624;20.378;2024-01-07T11:59:34;12.29;75.12
69393;SHT31;56582;44.624;20.378;2024-01-07T12:02:00;11.90;74.92
69393;SHT31;56582;44.624;20.378;2024-01-07T12:04:27;11.71;75.08
69393;SHT31;56582;44.624;20.378;2024-01-07T12:06:53;11.54;76.20
69393;SHT31;56582;44.624;20.378;2024-01-07T12:09:19;11.48;77.35
69393;SHT31;56582;44.624;20.378;2024-01-07T12:11:44;11.42;76.89
69393;SHT31;56582;44.624;20.378;2024-01-07T12:14:11;11.37;76.84
69393;SHT31;56582;44.624;20.378;2024-01-07T12:16:37;11.24;76.81
69393;SHT31;56582;44.624;20.378;2024-01-07T12:19:03;11.11;78.00
69393;SHT31;56582;44.624;20.378;2024-01-07T12:21:28;11.08;78.92
69393;SHT31;56582;44.624;20.378;2024-01-07T12:23:55;10.87;79.29
69393;SHT31;56582;44.624;20.378;2024-01-07T12:26:26;10.79;80.30
69393;SHT31;56582;44.624;20.378;2024-01-07T12:28:57;10.92;80.09
69393;SHT31;56582;44.624;20.378;2024-01-07T12:31:28;11.03;80.35
69393;SHT31;56582;44.624;20.378;2024-01-07T12:33:53;11.03;80.88
69393;SHT31;56582;44.624;20.378;2024-01-07T12:36:23;10.90;81.11
69393;SHT31;56582;44.624;20.378;2024-01-07T12:38:49;10.92;80.93
69393;SHT31;56582;44.624;20.378;2024-01-07T12:41:17;10.68;81.68
69393;SHT31;56582;44.624;20.378;2024-01-07T12:43:42;10.72;81.94
69393;SHT31;56582;44.624;20.378;2024-01-07T12:46:08;10.81;81.52
69393;SHT31;56582;44.624;20.378;2024-01-07T12:48:33;10.69;82.18
69393;SHT31;56582;44.624;20.378;2024-01-07T12:51:00;10.48;83.27
69393;SHT31;56582;44.624;20.378;2024-01-07T12:53:26;10.53;83.56
69393;SHT31;56582;44.624;20.378;2024-01-07T12:55:52;10.44;84.19
69393;SHT31;56582;44.624;20.378;2024-01-07T12:58:18;10.68;83.70
69393;SHT31;56582;44.624;20.378;2024-01-07T13:00:43;10.59;84.07
69393;SHT31;56582;44.624;20.378;2024-01-07T13:03:10;10.50;84.27
69393;SHT31;56582;44.624;20.378;2024-01-07T13:05:45;10.32;84.97
69393;SHT31;56582;44.624;20.378;2024-01-07T13:08:12;10.48;84.73
69393;SHT31;56582;44.624;20.378;2024-01-07T13:10:38;10.63;84.62
69393;SHT31;56582;44.624;20.378;2024-01-07T13:13:04;10.73;84.10
69393;SHT31;56582;44.624;20.378;2024-01-07T13:15:29;10.56;84.49
69393;SHT31;56582;44.624;20.378;2024-01-07T13:17:55;10.55;84.68
69393;SHT31;56582;44.624;20.378;2024-01-07T13:20:20;10.25;85.29
69393;SHT31;56582;44.624;20.378;2024-01-07T13:22:46;10.08;86.04
69393;SHT31;56582;44.624;20.378;2024-01-07T13:25:12;10.14;86.17
69393;SHT31;56582;44.624;20.378;2024-01-07T13:27:37;10.22;86.08
69393;SHT31;56582;44.624;20.378;2024-01-07T13:30:04;10.44;85.64
69393;SHT31;56582;44.624;20.378;2024-01-07T13:32:30;10.53;85.10
69393;SHT31;56582;44.624;20.378;2024-01-07T13:34:55;10.50;85.26
69393;SHT31;56582;44.624;20.378;2024-01-07T13:37:21;10.27;85.60
69393;SHT31;56582;44.624;20.378;2024-01-07T13:39:47;10.44;85.34
69393;SHT31;56582;44.624;20.378;2024-01-07T13:42:14;10.34;85.69
69393;SHT31;56582;44.624;20.378;2024-01-07T13:44:40;10.55;85.19
69393;SHT31;56582;44.624;20.378;2024-01-07T13:47:15;10.55;85.45
69393;SHT31;56582;44.624;20.378;2024-01-07T13:49:41;10.39;85.85
69393;SHT31;56582;44.624;20.378;2024-01-07T13:52:07;10.46;85.78
69393;SHT31;56582;44.624;20.378;2024-01-07T13:54:33;10.21;86.40
69393;SHT31;56582;44.624;20.378;2024-01-07T13:56:58;10.11;86.99
69393;SHT31;56582;44.624;20.378;2024-01-07T13:59:25;9.87;87.41
69393;SHT31;56582;44.624;20.378;2024-01-07T14:01:51;9.76;87.77
69393;SHT31;56582;44.624;20.378;2024-01-07T14:04:17;9.83;87.70
69393;SHT31;56582;44.624;20.378;2024-01-07T14:06:43;9.73;87.98
69393;SHT31;56582;44.624;20.378;2024-01-07T14:09:09;9.53;88.32
69393;SHT31;56582;44.624;20.378;2024-01-07T14:11:35;9.44;88.74
69393;SHT31;56582;44.624;20.378;2024-01-07T14:14:01;9.61;88.54
69393;SHT31;56582;44.624;20.378;2024-01-07T14:16:27;9.60;87.72
69393;SHT31;56582;44.624;20.378;2024-01-07T14:18:53;9.59;87.28
69393;SHT31;56582;44.624;20.378;2024-01-07T14:21:19;9.47;88.02
69393;SHT31;56582;44.624;20.378;2024-01-07T14:23:44;9.60;88.13
69393;SHT31;56582;44.624;20.378;2024-01-07T14:26:10;9.40;88.69
69393;SHT31;56582;44.624;20.378;2024-01-07T14:28:36;9.23;89.35
69393;SHT31;56582;44.624;20.378;2024-01-07T14:31:05;9.39;89.00
69393;SHT31;56582;44.624;20.378;2024-01-07T14:33:32;9.29;88.83
69393;SHT31;56582;44.624;20.378;2024-01-07T14:35:58;9.35;88.78
69393;SHT31;56582;44.624;20.378;2024-01-07T14:38:25;9.14;89.70
69393;SHT31;56582;44.624;20.378;2024-01-07T14:40:54;9.18;90.07
69393;SHT31;56582;44.624;20.378;2024-01-07T14:43:23;9.28;89.35
69393;SHT31;56582;44.624;20.378;2024-01-07T14:45:52;8.98;90.37
69393;SHT31;56582;44.624;20.378;2024-01-07T14:48:18;9.08;90.31
69393;SHT31;56582;44.624;20.378;2024-01-07T14:50:45;9.22;90.11
69393;SHT31;56582;44.624;20.378;2024-01-07T14:53:13;9.38;89.40
69393;SHT31;56582;44.624;20.378;2024-01-07T14:55:38;9.35;89.37
69393;SHT31;56582;44.624;20.378;2024-01-07T14:58:04;8.91;90.54
69393;SHT31;56582;44.624;20.378;2024-01-07T15:00:30;8.81;91.85
69393;SHT31;56582;44.624;20.378;2024-01-07T15:02:55;8.87;91.70
69393;SHT31;56582;44.624;20.378;2024-01-07T15:05:21;8.54;92.76
69393;SHT31;56582;44.624;20.378;2024-01-07T15:07:46;8.46;93.18
69393;SHT31;56582;44.624;20.378;2024-01-07T15:10:15;8.78;92.75
69393;SHT31;56582;44.624;20.378;2024-01-07T15:12:42;8.59;92.93
69393;SHT31;56582;44.624;20.378;2024-01-07T15:15:07;8.84;92.44
69393;SHT31;56582;44.624;20.378;2024-01-07T15:17:33;8.88;92.24
69393;SHT31;56582;44.624;20.378;2024-01-07T15:19:59;8.61;92.72